createdAt,value
2019-06-01T00:00:53.524Z,14.09
2019-06-01T00:03:21.744Z,14.08
2019-06-01T00:05:49.898Z,14.04
2019-06-01T00:08:18.037Z,14.01
2019-06-01T00:10:47.717Z,13.98
2019-06-01T00:13:16.006Z,13.96
2019-06-01T00:15:44.216Z,13.92
2019-06-01T00:18:12.415Z,13.87
2019-06-01T00:20:40.535Z,13.84
2019-06-01T00:23:08.728Z,13.81
2019-06-01T00:25:36.926Z,13.77
2019-06-01T00:28:05.042Z,13.74
2019-06-01T00:30:33.222Z,13.69
2019-06-01T00:33:01.414Z,13.66
2019-06-01T00:35:29.560Z,13.63
2019-06-01T00:37:57.758Z,13.61
2019-06-01T00:40:25.918Z,13.58
2019-06-01T00:42:54.075Z,13.56
2019-06-01T00:45:22.231Z,13.55
2019-06-01T00:47:50.912Z,13.53
2019-06-01T00:50:20.488Z,13.51
2019-06-01T00:52:49.237Z,13.49
2019-06-01T00:55:17.458Z,13.47
2019-06-01T00:57:45.795Z,13.45
2019-06-01T01:00:14.226Z,13.42
2019-06-01T01:02:42.464Z,13.40
2019-06-01T01:05:12.379Z,13.38
2019-06-01T01:07:40.593Z,13.36
2019-06-01T01:10:08.782Z,13.35
2019-06-01T01:12:36.935Z,13.34
2019-06-01T01:15:06.006Z,13.31
2019-06-01T01:17:34.219Z,13.31
2019-06-01T01:20:04.916Z,13.29
2019-06-01T01:22:33.130Z,13.29
2019-06-01T01:25:05.059Z,13.28
2019-06-01T01:27:33.198Z,13.27
2019-06-01T01:30:01.335Z,13.27
2019-06-01T01:32:29.564Z,13.25
2019-06-01T01:34:57.872Z,13.25
2019-06-01T01:37:26.083Z,13.24
2019-06-01T01:39:54.301Z,13.23
2019-06-01T01:42:22.442Z,13.24
2019-06-01T01:44:50.643Z,13.23
2019-06-01T01:47:18.799Z,13.23
2019-06-01T01:49:46.993Z,13.22
2019-06-01T01:52:15.175Z,13.21
2019-06-01T01:54:43.298Z,13.21
2019-06-01T01:57:11.459Z,13.20
2019-06-01T01:59:39.592Z,13.18
2019-06-01T02:02:07.865Z,13.18
2019-06-01T02:04:36.014Z,13.16
2019-06-01T02:07:04.251Z,13.15
2019-06-01T02:09:32.466Z,13.14
2019-06-01T02:12:01.852Z,13.12
2019-06-01T02:14:30.139Z,13.10
2019-06-01T02:16:58.376Z,13.10
2019-06-01T02:19:26.544Z,13.08
2019-06-01T02:21:54.691Z,13.07
2019-06-01T02:24:22.831Z,13.05
2019-06-01T02:26:51.019Z,13.04
2019-06-01T02:29:19.216Z,13.03
2019-06-01T02:31:47.362Z,13.02
2019-06-01T02:34:15.674Z,13.00
2019-06-01T02:36:43.761Z,13.00
2019-06-01T02:39:11.930Z,13.00
2019-06-01T02:41:40.067Z,12.99
2019-06-01T02:44:08.255Z,12.99
2019-06-01T02:46:36.535Z,12.97
2019-06-01T02:49:06.240Z,12.97
2019-06-01T02:51:34.674Z,12.96
2019-06-01T02:54:04.139Z,12.93
2019-06-01T02:56:32.371Z,12.92
2019-06-01T02:59:00.554Z,12.90
2019-06-01T03:01:36.944Z,12.88
2019-06-01T03:04:09.635Z,12.87
2019-06-01T03:06:40.657Z,12.85
2019-06-01T03:09:09.303Z,12.84
2019-06-01T03:11:38.698Z,12.82
2019-06-01T03:14:08.926Z,12.83
2019-06-01T03:16:41.393Z,12.82
2019-06-01T03:19:09.622Z,12.81
2019-06-01T03:21:37.975Z,12.80
2019-06-01T03:24:10.432Z,12.78
2019-06-01T03:26:45.157Z,12.79
2019-06-01T03:29:15.595Z,12.78
2019-06-01T03:31:43.924Z,12.76
2019-06-01T03:34:13.891Z,12.75
2019-06-01T03:36:42.093Z,12.74
2019-06-01T03:39:10.550Z,12.73
2019-06-01T03:41:38.729Z,12.73
2019-06-01T03:44:06.886Z,12.72
2019-06-01T03:46:35.107Z,12.71
2019-06-01T03:49:03.863Z,12.71
2019-06-01T03:51:32.217Z,12.70
2019-06-01T03:54:00.884Z,12.71
2019-06-01T03:56:29.255Z,12.72
2019-06-01T03:58:57.397Z,12.74
2019-06-01T04:01:25.639Z,12.74
2019-06-01T04:03:53.795Z,12.74
2019-06-01T04:06:21.943Z,12.80
2019-06-01T04:08:52.911Z,12.82
2019-06-01T04:11:21.109Z,12.85
2019-06-01T04:13:49.298Z,12.91
2019-06-01T04:16:17.545Z,12.96
2019-06-01T04:18:45.738Z,13.00
2019-06-01T04:21:13.917Z,13.05
2019-06-01T04:23:42.129Z,13.10
2019-06-01T04:26:10.434Z,13.13
2019-06-01T04:28:38.489Z,13.17
2019-06-01T04:31:08.474Z,13.25
2019-06-01T04:33:42.237Z,13.30
2019-06-01T04:36:10.959Z,13.36
2019-06-01T04:38:39.223Z,13.41
2019-06-01T04:41:07.646Z,13.45
2019-06-01T04:43:35.744Z,13.50
2019-06-01T04:46:04.050Z,13.55
2019-06-01T04:48:32.221Z,13.58
2019-06-01T04:51:00.363Z,13.64
2019-06-01T04:53:28.501Z,13.67
2019-06-01T04:55:56.682Z,13.70
2019-06-01T04:58:24.808Z,13.71
2019-06-01T05:00:52.971Z,13.73
2019-06-01T05:03:21.115Z,13.73
2019-06-01T05:05:49.300Z,13.73
2019-06-01T05:08:17.538Z,13.74
2019-06-01T05:10:45.771Z,13.74
2019-06-01T05:13:13.919Z,13.77
2019-06-01T05:15:42.234Z,13.80
2019-06-01T05:18:10.367Z,13.83
2019-06-01T05:20:38.511Z,13.85
2019-06-01T05:23:06.686Z,13.87
2019-06-01T05:25:34.943Z,13.89
2019-06-01T05:28:03.132Z,13.92
2019-06-01T05:30:31.431Z,13.93
2019-06-01T05:32:59.643Z,13.96
2019-06-01T05:35:27.808Z,13.99
2019-06-01T05:37:55.930Z,14.05
2019-06-01T05:40:24.152Z,14.09
2019-06-01T05:42:52.300Z,14.15
2019-06-01T05:45:22.545Z,14.22
2019-06-01T05:47:50.368Z,14.30
2019-06-01T05:50:18.802Z,14.37
2019-06-01T05:52:47.007Z,14.46
2019-06-01T05:55:16.663Z,14.53
2019-06-01T05:57:44.893Z,14.62
2019-06-01T06:00:13.599Z,14.71
2019-06-01T06:02:41.726Z,14.80
2019-06-01T06:05:10.627Z,14.88
2019-06-01T06:07:38.868Z,14.96
2019-06-01T06:10:07.636Z,15.04
2019-06-01T06:12:35.845Z,15.12
2019-06-01T06:15:04.948Z,15.18
2019-06-01T06:17:33.091Z,15.26
2019-06-01T06:20:04.032Z,15.33
2019-06-01T06:22:32.188Z,15.40
2019-06-01T06:25:00.384Z,15.47
2019-06-01T06:27:28.520Z,15.53
2019-06-01T06:29:56.704Z,15.59
2019-06-01T06:32:24.872Z,15.67
2019-06-01T06:34:53.152Z,15.72
2019-06-01T06:37:21.848Z,15.78
2019-06-01T06:39:50.242Z,15.82
2019-06-01T06:42:30.098Z,15.89
2019-06-01T06:44:49.475Z,15.84
2019-06-01T06:47:18.726Z,16.03
2019-06-01T06:49:47.111Z,16.10
2019-06-01T06:52:15.378Z,16.17
2019-06-01T06:54:43.670Z,16.25
2019-06-01T06:57:11.882Z,16.32
2019-06-01T06:59:40.066Z,16.39
2019-06-01T07:02:11.320Z,16.47
2019-06-01T07:04:41.894Z,16.55
2019-06-01T07:07:09.164Z,16.61
2019-06-01T07:09:37.404Z,16.68
2019-06-01T07:12:05.697Z,16.74
2019-06-01T07:14:33.842Z,16.81
2019-06-01T07:17:03.855Z,16.89
2019-06-01T07:19:32.001Z,16.98
2019-06-01T07:22:00.445Z,17.06
2019-06-01T07:24:28.685Z,17.15
2019-06-01T07:26:56.882Z,17.25
2019-06-01T07:29:26.171Z,17.35
2019-06-01T07:31:54.487Z,17.45
2019-06-01T07:34:33.542Z,17.55
2019-06-01T07:36:52.596Z,17.63
2019-06-01T07:39:21.054Z,17.72
2019-06-01T07:41:49.273Z,17.80
2019-06-01T07:44:17.412Z,17.87
2019-06-01T07:46:46.099Z,17.93
2019-06-01T07:49:18.527Z,17.99
2019-06-01T07:51:46.848Z,18.04
2019-06-01T07:54:15.379Z,18.08
2019-06-01T07:56:43.709Z,18.14
2019-06-01T07:59:11.931Z,18.21
2019-06-01T08:01:42.198Z,18.28
2019-06-01T08:04:10.030Z,18.34
2019-06-01T08:06:47.419Z,18.39
2019-06-01T08:09:08.135Z,18.47
2019-06-01T08:11:36.276Z,18.57
2019-06-01T08:14:04.502Z,18.68
2019-06-01T08:16:32.742Z,18.87
2019-06-01T08:19:00.911Z,19.09
2019-06-01T08:21:30.183Z,19.41
2019-06-01T08:23:58.451Z,19.66
2019-06-01T08:26:26.687Z,19.91
2019-06-01T08:28:54.885Z,20.24
2019-06-01T08:31:24.463Z,20.56
2019-06-01T08:33:52.699Z,20.82
2019-06-01T08:36:21.042Z,20.98
2019-06-01T08:38:49.269Z,21.37
2019-06-01T08:41:17.531Z,21.52
2019-06-01T08:43:45.669Z,21.52
2019-06-01T08:46:13.853Z,21.84
2019-06-01T08:48:41.975Z,22.03
2019-06-01T08:51:10.208Z,22.19
2019-06-01T08:53:38.433Z,22.37
2019-06-01T08:56:06.564Z,22.48
2019-06-01T08:58:34.759Z,22.56
2019-06-01T09:01:02.882Z,22.77
2019-06-01T09:03:31.847Z,22.94
2019-06-01T09:06:00.109Z,23.15
2019-06-01T09:08:28.914Z,23.41
2019-06-01T09:10:57.189Z,23.73
2019-06-01T09:13:25.328Z,24.02
2019-06-01T09:15:53.490Z,24.20
2019-06-01T09:18:21.699Z,24.31
2019-06-01T09:20:51.425Z,24.42
2019-06-01T09:23:19.538Z,24.54
2019-06-01T09:25:47.700Z,24.59
2019-06-01T09:28:15.872Z,24.74
2019-06-01T09:30:44.028Z,24.61
2019-06-01T09:33:15.818Z,24.74
2019-06-01T09:35:53.976Z,24.81
2019-06-01T09:38:13.169Z,24.86
2019-06-01T09:40:41.502Z,24.82
2019-06-01T09:43:09.706Z,24.78
2019-06-01T09:45:38.354Z,24.87
2019-06-01T09:48:06.667Z,24.80
2019-06-01T09:50:37.894Z,24.71
2019-06-01T09:53:07.551Z,24.75
2019-06-01T09:55:36.462Z,24.81
2019-06-01T09:58:04.663Z,24.87
2019-06-01T10:00:32.878Z,24.93
2019-06-01T10:03:01.008Z,25.03
2019-06-01T10:05:30.302Z,25.10
2019-06-01T10:07:58.482Z,25.11
2019-06-01T10:10:26.604Z,24.99
2019-06-01T10:12:54.725Z,24.97
2019-06-01T10:15:22.895Z,25.03
2019-06-01T10:17:51.086Z,25.10
2019-06-01T10:20:19.248Z,25.00
2019-06-01T10:22:47.550Z,25.16
2019-06-01T10:25:18.194Z,25.03
2019-06-01T10:27:46.406Z,24.90
2019-06-01T10:30:14.689Z,24.84
2019-06-01T10:32:45.617Z,24.96
2019-06-01T10:35:17.825Z,24.98
2019-06-01T10:37:46.099Z,25.00
2019-06-01T10:40:14.455Z,24.98
2019-06-01T10:42:42.605Z,25.06
2019-06-01T10:45:33.547Z,25.27
2019-06-01T10:48:03.687Z,25.23
2019-06-01T10:50:32.947Z,25.08
2019-06-01T10:53:01.715Z,24.87
2019-06-01T10:55:29.883Z,24.82
2019-06-01T10:57:58.041Z,24.99
2019-06-01T11:00:37.695Z,25.31
2019-06-01T11:02:56.222Z,25.53
2019-06-01T11:05:24.518Z,25.58
2019-06-01T11:07:52.636Z,25.81
2019-06-01T11:10:20.840Z,26.03
2019-06-01T11:12:49.060Z,26.30
2019-06-01T11:15:17.240Z,26.25
2019-06-01T11:17:45.377Z,26.03
2019-06-01T11:20:13.817Z,25.88
2019-06-01T11:22:44.293Z,25.82
2019-06-01T11:25:13.176Z,25.88
2019-06-01T11:27:41.871Z,26.06
2019-06-01T11:30:10.553Z,26.01
2019-06-01T11:32:40.987Z,26.21
2019-06-01T11:35:08.978Z,26.34
2019-06-01T11:37:38.369Z,26.22
2019-06-01T11:40:07.403Z,26.55
2019-06-01T11:42:36.738Z,26.93
2019-06-01T11:45:05.991Z,27.11
2019-06-01T11:47:34.762Z,27.45
2019-06-01T11:50:03.597Z,27.71
2019-06-01T11:52:31.755Z,27.81
2019-06-01T11:54:59.906Z,27.92
2019-06-01T11:57:28.145Z,27.84
2019-06-01T11:59:56.303Z,27.90
2019-06-01T12:02:24.423Z,28.05
2019-06-01T12:04:52.690Z,28.27
2019-06-01T12:07:20.834Z,28.47
2019-06-01T12:09:49.036Z,28.58
2019-06-01T12:12:17.225Z,28.80
2019-06-01T12:14:46.663Z,28.81
2019-06-01T12:17:14.910Z,28.72
2019-06-01T12:19:43.074Z,28.74
2019-06-01T12:22:11.193Z,28.61
2019-06-01T12:24:39.498Z,28.47
2019-06-01T12:27:07.625Z,28.15
2019-06-01T12:29:35.747Z,28.08
2019-06-01T12:32:04.547Z,28.11
2019-06-01T12:34:32.795Z,28.06
2019-06-01T12:37:00.942Z,28.01
2019-06-01T12:39:29.092Z,28.01
2019-06-01T12:41:57.260Z,28.06
2019-06-01T12:44:25.667Z,28.05
2019-06-01T12:46:53.914Z,28.00
2019-06-01T12:49:22.230Z,27.89
2019-06-01T12:51:50.491Z,27.68
2019-06-01T12:54:18.727Z,27.54
2019-06-01T12:56:49.325Z,27.40
2019-06-01T12:59:18.098Z,27.23
2019-06-01T13:01:47.240Z,27.10
2019-06-01T13:04:15.906Z,26.96
2019-06-01T13:06:44.720Z,26.69
2019-06-01T13:09:14.061Z,26.50
2019-06-01T13:11:43.205Z,26.25
2019-06-01T13:14:11.537Z,26.05
2019-06-01T13:16:42.532Z,25.91
2019-06-01T13:19:09.679Z,25.86
2019-06-01T13:21:38.077Z,25.82
2019-06-01T13:24:06.242Z,25.74
2019-06-01T13:26:34.615Z,25.59
2019-06-01T13:29:02.716Z,25.51
2019-06-01T13:31:30.895Z,25.42
2019-06-01T13:33:59.037Z,25.31
2019-06-01T13:36:27.182Z,25.19
2019-06-01T13:38:55.337Z,25.05
2019-06-01T13:41:23.540Z,25.03
2019-06-01T13:43:51.699Z,25.04
2019-06-01T13:46:19.986Z,24.99
2019-06-01T13:48:48.130Z,25.00
2019-06-01T13:51:16.209Z,25.06
2019-06-01T13:53:44.471Z,25.11
2019-06-01T13:56:13.424Z,25.15
2019-06-01T13:58:41.823Z,25.09
2019-06-01T14:01:09.953Z,25.00
2019-06-01T14:03:38.070Z,24.86
2019-06-01T14:06:06.241Z,24.85
2019-06-01T14:08:34.369Z,24.83
2019-06-01T14:11:03.394Z,24.70
2019-06-01T14:13:31.522Z,24.55
2019-06-01T14:15:59.729Z,24.59
2019-06-01T14:18:27.927Z,24.68
2019-06-01T14:20:56.129Z,24.69
2019-06-01T14:23:24.313Z,24.75
2019-06-01T14:25:54.110Z,24.76
2019-06-01T14:28:22.583Z,24.82
2019-06-01T14:30:50.753Z,24.82
2019-06-01T14:33:19.004Z,24.81
2019-06-01T14:35:48.285Z,24.80
2019-06-01T14:38:16.585Z,24.76
2019-06-01T14:40:44.808Z,24.75
2019-06-01T14:43:13.026Z,24.75
2019-06-01T14:45:41.131Z,24.75
2019-06-01T14:48:09.529Z,24.80
2019-06-01T14:50:37.789Z,24.82
2019-06-01T14:53:05.909Z,24.77
2019-06-01T14:55:34.161Z,24.68
2019-06-01T14:58:02.370Z,24.63
2019-06-01T15:00:30.565Z,24.58
2019-06-01T15:02:58.796Z,24.57
2019-06-01T15:05:27.067Z,24.50
2019-06-01T15:07:57.125Z,24.45
2019-06-01T15:10:25.391Z,24.45
2019-06-01T15:13:00.328Z,24.49
2019-06-01T15:15:23.580Z,24.53
2019-06-01T15:17:51.860Z,24.46
2019-06-01T15:20:20.132Z,24.42
2019-06-01T15:22:48.398Z,24.47
2019-06-01T15:25:16.647Z,24.55
2019-06-01T15:27:45.010Z,24.63
2019-06-01T15:30:13.851Z,24.69
2019-06-01T15:32:41.987Z,24.79
2019-06-01T15:35:10.920Z,24.87
2019-06-01T15:37:39.036Z,24.96
2019-06-01T15:40:07.924Z,25.06
2019-06-01T15:42:36.144Z,25.09
2019-06-01T15:45:04.905Z,25.04
2019-06-01T15:47:33.140Z,24.95
2019-06-01T15:50:02.634Z,24.95
2019-06-01T15:52:31.136Z,24.94
2019-06-01T15:55:00.463Z,25.06
2019-06-01T15:57:28.856Z,25.15
2019-06-01T15:59:57.201Z,25.20
2019-06-01T16:02:25.380Z,25.34
2019-06-01T16:04:54.868Z,25.46
2019-06-01T16:07:23.382Z,25.55
2019-06-01T16:09:51.528Z,25.57
2019-06-01T16:12:19.735Z,25.61
2019-06-01T16:14:48.088Z,25.61
2019-06-01T16:17:16.251Z,25.46
2019-06-01T16:19:44.430Z,25.36
2019-06-01T16:22:12.565Z,25.32
2019-06-01T16:24:40.766Z,25.36
2019-06-01T16:27:08.920Z,25.28
2019-06-01T16:29:37.999Z,25.17
2019-06-01T16:32:06.126Z,25.00
2019-06-01T16:34:34.390Z,24.89
2019-06-01T16:37:03.198Z,24.75
2019-06-01T16:39:31.709Z,24.55
2019-06-01T16:41:59.931Z,24.40
2019-06-01T16:44:28.096Z,24.34
2019-06-01T16:46:57.556Z,24.30
2019-06-01T16:49:27.380Z,24.29
2019-06-01T16:51:56.917Z,24.22
2019-06-01T16:54:25.694Z,24.17
2019-06-01T16:56:53.960Z,24.12
2019-06-01T16:59:22.108Z,24.03
2019-06-01T17:01:50.294Z,23.93
2019-06-01T17:04:18.618Z,23.78
2019-06-01T17:06:46.756Z,23.62
2019-06-01T17:09:15.224Z,23.52
2019-06-01T17:11:43.410Z,23.40
2019-06-01T17:14:11.539Z,23.30
2019-06-01T17:16:39.684Z,23.19
2019-06-01T17:19:07.847Z,23.03
2019-06-01T17:21:36.078Z,22.83
2019-06-01T17:24:05.961Z,22.68
2019-06-01T17:26:34.198Z,22.55
2019-06-01T17:29:04.130Z,22.42
2019-06-01T17:31:32.440Z,22.33
2019-06-01T17:34:00.652Z,22.26
2019-06-01T17:36:28.806Z,22.19
2019-06-01T17:38:56.977Z,22.15
2019-06-01T17:41:25.116Z,22.07
2019-06-01T17:43:53.247Z,22.00
2019-06-01T17:46:21.368Z,21.87
2019-06-01T17:48:49.542Z,21.73
2019-06-01T17:51:17.652Z,21.65
2019-06-01T17:53:45.782Z,21.63
2019-06-01T17:56:14.058Z,21.60
2019-06-01T17:58:42.180Z,21.58
2019-06-01T18:01:10.335Z,21.50
2019-06-01T18:03:38.496Z,21.38
2019-06-01T18:06:07.783Z,21.28
2019-06-01T18:08:35.983Z,21.20
2019-06-01T18:11:04.378Z,21.15
2019-06-01T18:13:32.529Z,21.10
2019-06-01T18:16:02.880Z,21.02
2019-06-01T18:18:30.662Z,20.90
2019-06-01T18:20:59.202Z,20.79
2019-06-01T18:23:27.386Z,20.74
2019-06-01T18:25:55.569Z,20.69
2019-06-01T18:28:26.322Z,20.66
2019-06-01T18:30:54.443Z,20.63
2019-06-01T18:33:22.601Z,20.57
2019-06-01T18:35:50.733Z,20.50
2019-06-01T18:38:18.871Z,20.42
2019-06-01T18:40:47.072Z,20.39
2019-06-01T18:43:17.548Z,20.36
2019-06-01T18:45:45.915Z,20.35
2019-06-01T18:48:14.483Z,20.34
2019-06-01T18:50:43.239Z,20.35
2019-06-01T18:53:12.152Z,20.35
2019-06-01T18:55:40.677Z,20.34
2019-06-01T18:58:10.244Z,20.28
2019-06-01T19:00:40.103Z,20.22
2019-06-01T19:03:09.152Z,20.16
2019-06-01T19:05:37.819Z,20.10
2019-06-01T19:08:07.206Z,20.05
2019-06-01T19:10:35.634Z,19.98
2019-06-01T19:13:05.558Z,19.90
2019-06-01T19:15:34.222Z,19.81
2019-06-01T19:18:03.349Z,19.71
2019-06-01T19:20:33.247Z,19.64
2019-06-01T19:23:03.343Z,19.58
2019-06-01T19:25:31.974Z,19.51
2019-06-01T19:28:00.152Z,19.43
2019-06-01T19:30:46.585Z,19.38
2019-06-01T19:33:17.434Z,19.31
2019-06-01T19:35:44.558Z,19.25
2019-06-01T19:38:13.406Z,19.18
2019-06-01T19:40:41.734Z,19.13
2019-06-01T19:43:10.266Z,19.10
2019-06-01T19:45:41.322Z,19.04
2019-06-01T19:48:12.174Z,18.98
2019-06-01T19:50:40.730Z,18.92
2019-06-01T19:53:08.867Z,18.87
2019-06-01T19:55:36.983Z,18.80
2019-06-01T19:58:05.153Z,18.75
2019-06-01T20:00:33.497Z,18.71
2019-06-01T20:03:03.670Z,18.65
2019-06-01T20:05:31.908Z,18.62
2019-06-01T20:08:07.703Z,18.58
2019-06-01T20:10:35.893Z,18.53
2019-06-01T20:13:04.101Z,18.45
2019-06-01T20:15:32.523Z,18.40
2019-06-01T20:18:01.041Z,18.35
2019-06-01T20:20:29.180Z,18.30
2019-06-01T20:22:57.329Z,18.23
2019-06-01T20:25:25.489Z,18.19
2019-06-01T20:27:53.645Z,18.12
2019-06-01T20:30:22.232Z,18.07
2019-06-01T20:32:50.528Z,18.03
2019-06-01T20:35:18.647Z,17.98
2019-06-01T20:37:46.803Z,17.92
2019-06-01T20:40:16.253Z,17.88
2019-06-01T20:42:45.095Z,17.83
2019-06-01T20:45:14.448Z,17.78
2019-06-01T20:47:42.969Z,17.72
2019-06-01T20:50:12.629Z,17.66
2019-06-01T20:52:41.147Z,17.62
2019-06-01T20:55:09.456Z,17.57
2019-06-01T20:57:37.808Z,17.52
2019-06-01T21:00:08.073Z,17.46
2019-06-01T21:02:36.276Z,17.42
2019-06-01T21:05:06.048Z,17.38
2019-06-01T21:07:34.274Z,17.34
2019-06-01T21:10:02.572Z,17.29
2019-06-01T21:12:44.004Z,17.23
2019-06-01T21:15:00.616Z,17.19
2019-06-01T21:17:28.753Z,17.14
2019-06-01T21:19:56.886Z,17.10
2019-06-01T21:22:25.032Z,17.07
2019-06-01T21:24:53.133Z,17.04
2019-06-01T21:27:21.261Z,17.01
2019-06-01T21:29:49.577Z,16.96
2019-06-01T21:32:18.978Z,16.92
2019-06-01T21:34:47.469Z,16.87
2019-06-01T21:37:15.562Z,16.82
2019-06-01T21:39:43.667Z,16.78
2019-06-01T21:42:11.857Z,16.74
2019-06-01T21:44:39.971Z,16.69
2019-06-01T21:47:08.078Z,16.65
2019-06-01T21:49:36.198Z,16.60
2019-06-01T21:52:04.399Z,16.56
2019-06-01T21:54:32.515Z,16.52
2019-06-01T21:57:00.632Z,16.49
2019-06-01T21:59:28.752Z,16.46
2019-06-01T22:01:56.854Z,16.43
2019-06-01T22:04:25.627Z,16.36
2019-06-01T22:06:53.900Z,16.32
2019-06-01T22:09:23.259Z,16.28
2019-06-01T22:11:51.591Z,16.23
2019-06-01T22:14:19.703Z,16.18
2019-06-01T22:16:47.824Z,16.15
2019-06-01T22:19:15.932Z,16.11
2019-06-01T22:21:44.085Z,16.08
2019-06-01T22:24:12.176Z,16.04
2019-06-01T22:26:40.326Z,16.02
2019-06-01T22:29:08.423Z,15.99
2019-06-01T22:31:36.555Z,15.94
2019-06-01T22:34:04.806Z,15.91
2019-06-01T22:36:32.912Z,15.87
2019-06-01T22:39:01.049Z,15.83
2019-06-01T22:41:29.196Z,15.80
2019-06-01T22:43:57.433Z,15.78
2019-06-01T22:46:26.819Z,15.74
2019-06-01T22:48:55.184Z,15.72
2019-06-01T22:51:23.374Z,15.69
2019-06-01T22:53:51.551Z,15.66
2019-06-01T22:56:21.070Z,15.63
2019-06-01T22:58:49.562Z,15.60
2019-06-01T23:01:17.764Z,15.57
2019-06-01T23:03:45.896Z,15.55
2019-06-01T23:06:14.066Z,15.52
2019-06-01T23:08:42.205Z,15.48
2019-06-01T23:11:10.444Z,15.46
2019-06-01T23:13:52.356Z,15.45
2019-06-01T23:16:08.425Z,15.42
2019-06-01T23:18:36.525Z,15.40
2019-06-01T23:21:05.833Z,15.37
2019-06-01T23:23:33.966Z,15.34
2019-06-01T23:26:02.173Z,15.31
2019-06-01T23:28:30.459Z,15.28
2019-06-01T23:30:58.666Z,15.27
2019-06-01T23:33:26.994Z,15.26
2019-06-01T23:35:55.109Z,15.24
2019-06-01T23:38:24.440Z,15.23
2019-06-01T23:40:52.972Z,15.19
2019-06-01T23:43:22.555Z,15.17
2019-06-01T23:45:50.957Z,15.16
2019-06-01T23:48:19.061Z,15.15
2019-06-01T23:50:47.220Z,15.14
2019-06-01T23:53:15.334Z,15.12
2019-06-01T23:55:43.431Z,15.13
2019-06-01T23:58:12.226Z,15.12
